sensor_id;sensor_type;location;lat;lon;timestamp;temperature;humidity
14378;DHT22;7272;53.668;9.578;2022-12-07T00:01:41;5.10;99.90
14378;DHT22;7272;53.668;9.578;2022-12-07T00:04:44;5.10;99.90
14378;DHT22;7272;53.668;9.578;2022-12-07T00:07:46;5.10;99.90
14378;DHT22;7272;53.668;9.578;2022-12-07T00:10:49;5.10;99.90
14378;DHT22;7272;53.668;9.578;2022-12-07T00:13:52;5.20;99.90
14378;DHT22;7272;53.668;9.578;2022-12-07T00:16:54;5.10;99.90
14378;DHT22;7272;53.668;9.578;2022-12-07T00:19:56;5.10;99.90
14378;DHT22;7272;53.668;9.578;2022-12-07T00:22:59;5.20;99.90
14378;DHT22;7272;53.668;9.578;2022-12-07T00:26:07;5.10;99.90
14378;DHT22;7272;53.668;9.578;2022-12-07T00:29:12;5.10;99.90
14378;DHT22;7272;53.668;9.578;2022-12-07T00:32:15;5.10;99.90
14378;DHT22;7272;53.668;9.578;2022-12-07T00:35:17;5.10;99.90
14378;DHT22;7272;53.668;9.578;2022-12-07T00:38:19;5.10;99.90
14378;DHT22;7272;53.668;9.578;2022-12-07T00:41:24;5.10;99.90
14378;DHT22;7272;53.668;9.578;2022-12-07T00:44:26;5.10;99.90
14378;DHT22;7272;53.668;9.578;2022-12-07T00:47:28;5.10;99.90
14378;DHT22;7272;53.668;9.578;2022-12-07T00:50:30;5.10;99.90
14378;DHT22;7272;53.668;9.578;2022-12-07T00:53:34;5.20;99.90
14378;DHT22;7272;53.668;9.578;2022-12-07T00:56:38;5.20;99.90
14378;DHT22;7272;53.668;9.578;2022-12-07T00:59:40;5.20;99.90
14378;DHT22;7272;53.668;9.578;2022-12-07T01:02:42;5.20;99.90
14378;DHT22;7272;53.668;9.578;2022-12-07T01:05:51;5.20;99.90
14378;DHT22;7272;53.668;9.578;2022-12-07T01:08:53;5.20;99.90
14378;DHT22;7272;53.668;9.578;2022-12-07T01:11:57;5.20;99.90
14378;DHT22;7272;53.668;9.578;2022-12-07T01:14:59;5.20;99.90
14378;DHT22;7272;53.668;9.578;2022-12-07T01:18:01;5.30;99.90
14378;DHT22;7272;53.668;9.578;2022-12-07T01:21:05;5.30;99.90
14378;DHT22;7272;53.668;9.578;2022-12-07T01:24:10;5.20;99.90
14378;DHT22;7272;53.668;9.578;2022-12-07T01:27:14;5.20;99.90
14378;DHT22;7272;53.668;9.578;2022-12-07T01:30:17;5.10;99.90
14378;DHT22;7272;53.668;9.578;2022-12-07T01:33:19;5.10;99.90
14378;DHT22;7272;53.668;9.578;2022-12-07T01:36:23;5.00;99.90
14378;DHT22;7272;53.668;9.578;2022-12-07T01:39:25;4.90;99.90
14378;DHT22;7272;53.668;9.578;2022-12-07T01:42:29;4.90;99.90
14378;DHT22;7272;53.668;9.578;2022-12-07T01:45:39;4.90;99.90
14378;DHT22;7272;53.668;9.578;2022-12-07T01:48:41;4.80;99.90
14378;DHT22;7272;53.668;9.578;2022-12-07T01:51:46;4.80;99.90
14378;DHT22;7272;53.668;9.578;2022-12-07T01:54:51;4.70;99.90
14378;DHT22;7272;53.668;9.578;2022-12-07T01:57:56;4.70;99.90
14378;DHT22;7272;53.668;9.578;2022-12-07T02:00:58;4.60;99.90
14378;DHT22;7272;53.668;9.578;2022-12-07T02:04:00;4.60;99.90
14378;DHT22;7272;53.668;9.578;2022-12-07T02:07:04;4.60;99.90
14378;DHT22;7272;53.668;9.578;2022-12-07T02:10:14;4.60;99.90
14378;DHT22;7272;53.668;9.578;2022-12-07T02:13:21;4.60;99.90
14378;DHT22;7272;53.668;9.578;2022-12-07T02:16:29;4.50;99.90
14378;DHT22;7272;53.668;9.578;2022-12-07T02:20:06;4.50;99.90
14378;DHT22;7272;53.668;9.578;2022-12-07T02:27:16;4.50;99.90
14378;DHT22;7272;53.668;9.578;2022-12-07T02:30:24;4.40;99.90
14378;DHT22;7272;53.668;9.578;2022-12-07T02:33:33;4.40;99.90
14378;DHT22;7272;53.668;9.578;2022-12-07T02:36:39;4.30;99.90
14378;DHT22;7272;53.668;9.578;2022-12-07T02:39:46;4.30;99.90
14378;DHT22;7272;53.668;9.578;2022-12-07T02:42:53;4.20;99.90
14378;DHT22;7272;53.668;9.578;2022-12-07T02:46:01;4.30;99.90
14378;DHT22;7272;53.668;9.578;2022-12-07T02:49:05;4.30;99.90
14378;DHT22;7272;53.668;9.578;2022-12-07T02:52:07;4.30;99.90
14378;DHT22;7272;53.668;9.578;2022-12-07T02:55:09;4.30;99.90
14378;DHT22;7272;53.668;9.578;2022-12-07T02:58:23;4.30;99.90
14378;DHT22;7272;53.668;9.578;2022-12-07T03:01:37;4.30;99.90
14378;DHT22;7272;53.668;9.578;2022-12-07T03:04:46;4.20;99.90
14378;DHT22;7272;53.668;9.578;2022-12-07T03:08:00;4.20;99.90
14378;DHT22;7272;53.668;9.578;2022-12-07T03:11:05;4.20;99.90
14378;DHT22;7272;53.668;9.578;2022-12-07T03:14:13;4.20;99.90
14378;DHT22;7272;53.668;9.578;2022-12-07T03:17:22;4.20;99.90
14378;DHT22;7272;53.668;9.578;2022-12-07T03:20:27;4.20;99.90
14378;DHT22;7272;53.668;9.578;2022-12-07T03:23:33;4.10;99.90
14378;DHT22;7272;53.668;9.578;2022-12-07T03:26:41;4.10;99.90
14378;DHT22;7272;53.668;9.578;2022-12-07T03:29:46;4.00;99.90
14378;DHT22;7272;53.668;9.578;2022-12-07T03:32:54;4.00;99.90
14378;DHT22;7272;53.668;9.578;2022-12-07T03:36:04;4.00;99.90
14378;DHT22;7272;53.668;9.578;2022-12-07T03:39:14;4.00;99.90
14378;DHT22;7272;53.668;9.578;2022-12-07T03:42:18;4.00;99.90
14378;DHT22;7272;53.668;9.578;2022-12-07T03:45:23;4.00;99.90
14378;DHT22;7272;53.668;9.578;2022-12-07T03:48:34;4.00;99.90
14378;DHT22;7272;53.668;9.578;2022-12-07T03:51:42;3.90;99.90
14378;DHT22;7272;53.668;9.578;2022-12-07T03:54:51;3.90;99.90
14378;DHT22;7272;53.668;9.578;2022-12-07T03:57:58;3.80;99.90
14378;DHT22;7272;53.668;9.578;2022-12-07T04:01:01;3.80;99.90
14378;DHT22;7272;53.668;9.578;2022-12-07T04:04:04;3.90;99.90
14378;DHT22;7272;53.668;9.578;2022-12-07T04:07:07;3.90;99.90
14378;DHT22;7272;53.668;9.578;2022-12-07T04:10:10;3.90;99.90
14378;DHT22;7272;53.668;9.578;2022-12-07T04:13:12;4.00;99.90
14378;DHT22;7272;53.668;9.578;2022-12-07T04:16:14;4.00;99.90
14378;DHT22;7272;53.668;9.578;2022-12-07T04:19:18;4.00;99.90
14378;DHT22;7272;53.668;9.578;2022-12-07T04:22:21;4.10;99.90
14378;DHT22;7272;53.668;9.578;2022-12-07T04:25:23;4.10;99.90
14378;DHT22;7272;53.668;9.578;2022-12-07T04:28:25;4.10;99.90
14378;DHT22;7272;53.668;9.578;2022-12-07T04:31:27;4.00;99.90
14378;DHT22;7272;53.668;9.578;2022-12-07T04:34:31;4.00;99.90
14378;DHT22;7272;53.668;9.578;2022-12-07T04:37:33;4.00;99.90
14378;DHT22;7272;53.668;9.578;2022-12-07T04:40:36;4.00;99.90
14378;DHT22;7272;53.668;9.578;2022-12-07T04:43:38;3.90;99.90
14378;DHT22;7272;53.668;9.578;2022-12-07T04:46:41;4.00;99.90
14378;DHT22;7272;53.668;9.578;2022-12-07T04:49:44;4.00;99.90
14378;DHT22;7272;53.668;9.578;2022-12-07T04:53:05;4.00;99.90
14378;DHT22;7272;53.668;9.578;2022-12-07T04:56:07;3.90;99.90
14378;DHT22;7272;53.668;9.578;2022-12-07T04:59:10;3.90;99.90
14378;DHT22;7272;53.668;9.578;2022-12-07T05:02:12;3.90;99.90
14378;DHT22;7272;53.668;9.578;2022-12-07T05:05:15;3.80;99.90
14378;DHT22;7272;53.668;9.578;2022-12-07T05:08:18;3.80;99.90
14378;DHT22;7272;53.668;9.578;2022-12-07T05:11:20;3.80;99.90
14378;DHT22;7272;53.668;9.578;2022-12-07T05:14:40;3.80;99.90
14378;DHT22;7272;53.668;9.578;2022-12-07T05:17:42;3.90;99.90
14378;DHT22;7272;53.668;9.578;2022-12-07T05:20:45;3.90;99.90
14378;DHT22;7272;53.668;9.578;2022-12-07T05:23:47;3.90;99.90
14378;DHT22;7272;53.668;9.578;2022-12-07T05:26:49;3.80;99.90
14378;DHT22;7272;53.668;9.578;2022-12-07T05:29:52;3.80;99.90
14378;DHT22;7272;53.668;9.578;2022-12-07T05:32:54;3.80;99.90
14378;DHT22;7272;53.668;9.578;2022-12-07T05:35:57;3.80;99.90
14378;DHT22;7272;53.668;9.578;2022-12-07T05:38:59;3.90;99.90
14378;DHT22;7272;53.668;9.578;2022-12-07T05:42:01;3.80;99.90
14378;DHT22;7272;53.668;9.578;2022-12-07T05:45:16;3.80;99.90
14378;DHT22;7272;53.668;9.578;2022-12-07T05:48:18;3.80;99.90
14378;DHT22;7272;53.668;9.578;2022-12-07T05:51:21;3.80;99.90
14378;DHT22;7272;53.668;9.578;2022-12-07T05:54:24;3.90;99.90
14378;DHT22;7272;53.668;9.578;2022-12-07T05:57:26;3.90;99.90
14378;DHT22;7272;53.668;9.578;2022-12-07T06:00:28;3.90;99.90
14378;DHT22;7272;53.668;9.578;2022-12-07T06:03:29;3.90;99.90
14378;DHT22;7272;53.668;9.578;2022-12-07T06:06:32;3.90;99.90
14378;DHT22;7272;53.668;9.578;2022-12-07T06:09:35;3.90;99.90
14378;DHT22;7272;53.668;9.578;2022-12-07T06:12:37;3.90;99.90
14378;DHT22;7272;53.668;9.578;2022-12-07T06:15:55;3.90;99.90
14378;DHT22;7272;53.668;9.578;2022-12-07T06:18:57;3.90;99.90
14378;DHT22;7272;53.668;9.578;2022-12-07T06:22:01;3.90;99.90
14378;DHT22;7272;53.668;9.578;2022-12-07T06:25:03;3.90;99.90
14378;DHT22;7272;53.668;9.578;2022-12-07T06:28:05;3.90;99.90
14378;DHT22;7272;53.668;9.578;2022-12-07T06:31:08;3.90;99.90
14378;DHT22;7272;53.668;9.578;2022-12-07T06:34:12;4.00;99.90
14378;DHT22;7272;53.668;9.578;2022-12-07T06:37:16;4.00;99.90
14378;DHT22;7272;53.668;9.578;2022-12-07T06:40:18;4.00;99.90
14378;DHT22;7272;53.668;9.578;2022-12-07T06:43:20;4.00;99.90
14378;DHT22;7272;53.668;9.578;2022-12-07T06:46:22;4.00;99.90
14378;DHT22;7272;53.668;9.578;2022-12-07T06:49:25;4.10;99.90
14378;DHT22;7272;53.668;9.578;2022-12-07T06:52:28;4.00;99.90
14378;DHT22;7272;53.668;9.578;2022-12-07T06:55:30;4.00;99.90
14378;DHT22;7272;53.668;9.578;2022-12-07T06:58:32;4.00;99.90
14378;DHT22;7272;53.668;9.578;2022-12-07T07:01:35;4.00;99.90
14378;DHT22;7272;53.668;9.578;2022-12-07T07:04:37;4.10;99.90
14378;DHT22;7272;53.668;9.578;2022-12-07T07:07:41;4.10;99.90
14378;DHT22;7272;53.668;9.578;2022-12-07T07:10:43;4.10;99.90
14378;DHT22;7272;53.668;9.578;2022-12-07T07:13:45;4.10;99.90
14378;DHT22;7272;53.668;9.578;2022-12-07T07:16:47;4.10;99.90
14378;DHT22;7272;53.668;9.578;2022-12-07T07:19:49;4.00;99.90
14378;DHT22;7272;53.668;9.578;2022-12-07T07:22:54;4.00;99.90
14378;DHT22;7272;53.668;9.578;2022-12-07T07:25:57;4.00;99.90
14378;DHT22;7272;53.668;9.578;2022-12-07T07:28:59;4.00;99.90
14378;DHT22;7272;53.668;9.578;2022-12-07T07:32:01;4.00;99.90
14378;DHT22;7272;53.668;9.578;2022-12-07T07:35:03;4.00;99.90
14378;DHT22;7272;53.668;9.578;2022-12-07T07:38:08;4.10;99.90
14378;DHT22;7272;53.668;9.578;2022-12-07T07:41:10;4.00;99.90
14378;DHT22;7272;53.668;9.578;2022-12-07T07:44:12;4.00;99.90
14378;DHT22;7272;53.668;9.578;2022-12-07T07:47:14;4.00;99.90
14378;DHT22;7272;53.668;9.578;2022-12-07T07:50:17;4.10;99.90
14378;DHT22;7272;53.668;9.578;2022-12-07T07:53:21;4.10;99.90
14378;DHT22;7272;53.668;9.578;2022-12-07T07:56:23;4.10;99.90
14378;DHT22;7272;53.668;9.578;2022-12-07T07:59:25;4.10;99.90
14378;DHT22;7272;53.668;9.578;2022-12-07T08:02:28;4.20;99.90
14378;DHT22;7272;53.668;9.578;2022-12-07T08:05:31;4.20;99.90
14378;DHT22;7272;53.668;9.578;2022-12-07T08:08:34;4.20;99.90
14378;DHT22;7272;53.668;9.578;2022-12-07T08:11:36;4.20;99.90
14378;DHT22;7272;53.668;9.578;2022-12-07T08:14:38;4.20;99.90
14378;DHT22;7272;53.668;9.578;2022-12-07T08:17:40;4.30;99.90
14378;DHT22;7272;53.668;9.578;2022-12-07T08:20:42;4.30;99.90
14378;DHT22;7272;53.668;9.578;2022-12-07T08:23:45;4.30;99.90
14378;DHT22;7272;53.668;9.578;2022-12-07T08:26:47;4.30;99.90
14378;DHT22;7272;53.668;9.578;2022-12-07T08:29:50;4.40;99.90
14378;DHT22;7272;53.668;9.578;2022-12-07T08:32:52;4.40;99.90
14378;DHT22;7272;53.668;9.578;2022-12-07T08:35:54;4.40;99.90
14378;DHT22;7272;53.668;9.578;2022-12-07T08:38:57;4.50;99.90
14378;DHT22;7272;53.668;9.578;2022-12-07T08:41:59;4.50;99.90
14378;DHT22;7272;53.668;9.578;2022-12-07T08:45:01;4.50;99.90
14378;DHT22;7272;53.668;9.578;2022-12-07T08:48:06;4.60;99.90
14378;DHT22;7272;53.668;9.578;2022-12-07T08:51:11;4.60;99.90
14378;DHT22;7272;53.668;9.578;2022-12-07T08:54:16;4.60;99.90
14378;DHT22;7272;53.668;9.578;2022-12-07T08:57:18;4.60;99.90
14378;DHT22;7272;53.668;9.578;2022-12-07T09:00:20;4.60;99.90
14378;DHT22;7272;53.668;9.578;2022-12-07T09:03:22;4.60;99.90
14378;DHT22;7272;53.668;9.578;2022-12-07T09:06:24;4.60;99.90
14378;DHT22;7272;53.668;9.578;2022-12-07T09:09:28;4.70;99.90
14378;DHT22;7272;53.668;9.578;2022-12-07T09:12:30;4.70;99.90
14378;DHT22;7272;53.668;9.578;2022-12-07T09:15:32;4.70;99.90
14378;DHT22;7272;53.668;9.578;2022-12-07T09:18:34;4.70;99.90
14378;DHT22;7272;53.668;9.578;2022-12-07T09:21:35;4.70;99.90
14378;DHT22;7272;53.668;9.578;2022-12-07T09:24:39;4.70;99.90
14378;DHT22;7272;53.668;9.578;2022-12-07T09:27:41;4.80;99.90
14378;DHT22;7272;53.668;9.578;2022-12-07T09:30:45;4.80;99.90
14378;DHT22;7272;53.668;9.578;2022-12-07T09:33:53;4.90;99.90
14378;DHT22;7272;53.668;9.578;2022-12-07T09:36:55;4.90;99.90
14378;DHT22;7272;53.668;9.578;2022-12-07T09:39:58;4.90;99.90
14378;DHT22;7272;53.668;9.578;2022-12-07T09:43:00;5.00;99.90
14378;DHT22;7272;53.668;9.578;2022-12-07T09:46:03;5.00;99.90
14378;DHT22;7272;53.668;9.578;2022-12-07T09:49:05;5.00;99.90
14378;DHT22;7272;53.668;9.578;2022-12-07T09:52:18;5.00;99.90
14378;DHT22;7272;53.668;9.578;2022-12-07T09:55:24;5.00;99.90
14378;DHT22;7272;53.668;9.578;2022-12-07T09:58:28;5.00;99.90
14378;DHT22;7272;53.668;9.578;2022-12-07T10:01:33;5.00;99.90
14378;DHT22;7272;53.668;9.578;2022-12-07T10:04:37;4.90;99.90
14378;DHT22;7272;53.668;9.578;2022-12-07T10:07:39;5.00;99.90
14378;DHT22;7272;53.668;9.578;2022-12-07T10:10:44;5.00;99.90
14378;DHT22;7272;53.668;9.578;2022-12-07T10:13:47;5.00;99.90
14378;DHT22;7272;53.668;9.578;2022-12-07T10:16:49;5.10;99.90
14378;DHT22;7272;53.668;9.578;2022-12-07T10:19:52;5.10;99.90
14378;DHT22;7272;53.668;9.578;2022-12-07T10:23:15;5.20;99.90
14378;DHT22;7272;53.668;9.578;2022-12-07T10:26:27;5.20;99.90
14378;DHT22;7272;53.668;9.578;2022-12-07T10:29:32;5.30;99.90
14378;DHT22;7272;53.668;9.578;2022-12-07T10:32:36;5.40;99.90
14378;DHT22;7272;53.668;9.578;2022-12-07T10:35:43;5.40;99.90
14378;DHT22;7272;53.668;9.578;2022-12-07T10:38:47;5.40;99.90
14378;DHT22;7272;53.668;9.578;2022-12-07T10:41:55;5.40;99.90
14378;DHT22;7272;53.668;9.578;2022-12-07T10:45:09;5.50;99.90
14378;DHT22;7272;53.668;9.578;2022-12-07T10:48:21;5.50;99.90
14378;DHT22;7272;53.668;9.578;2022-12-07T10:51:29;5.60;99.90
14378;DHT22;7272;53.668;9.578;2022-12-07T10:54:41;5.60;99.90
14378;DHT22;7272;53.668;9.578;2022-12-07T10:57:58;5.60;99.90
14378;DHT22;7272;53.668;9.578;2022-12-07T11:01:11;5.60;99.90
14378;DHT22;7272;53.668;9.578;2022-12-07T11:04:21;5.70;99.90
14378;DHT22;7272;53.668;9.578;2022-12-07T11:07:37;5.60;99.90
14378;DHT22;7272;53.668;9.578;2022-12-07T11:10:46;5.60;99.90
14378;DHT22;7272;53.668;9.578;2022-12-07T11:13:59;5.70;99.90
14378;DHT22;7272;53.668;9.578;2022-12-07T11:17:07;5.70;99.90
14378;DHT22;7272;53.668;9.578;2022-12-07T11:23:48;5.70;99.90
14378;DHT22;7272;53.668;9.578;2022-12-07T11:27:01;5.70;99.90
14378;DHT22;7272;53.668;9.578;2022-12-07T11:30:15;5.80;99.90
14378;DHT22;7272;53.668;9.578;2022-12-07T11:33:24;5.90;99.90
14378;DHT22;7272;53.668;9.578;2022-12-07T11:36:35;5.90;99.90
14378;DHT22;7272;53.668;9.578;2022-12-07T11:39:44;5.90;99.90
14378;DHT22;7272;53.668;9.578;2022-12-07T11:42:52;5.90;99.90
14378;DHT22;7272;53.668;9.578;2022-12-07T11:45:59;6.00;99.90
14378;DHT22;7272;53.668;9.578;2022-12-07T11:49:03;6.10;99.90
14378;DHT22;7272;53.668;9.578;2022-12-07T11:52:20;6.10;99.90
14378;DHT22;7272;53.668;9.578;2022-12-07T11:55:29;6.10;99.90
14378;DHT22;7272;53.668;9.578;2022-12-07T11:58:48;6.20;99.90
14378;DHT22;7272;53.668;9.578;2022-12-07T12:01:56;6.20;99.90
14378;DHT22;7272;53.668;9.578;2022-12-07T12:05:05;6.20;99.90
14378;DHT22;7272;53.668;9.578;2022-12-07T12:08:15;6.20;99.90
14378;DHT22;7272;53.668;9.578;2022-12-07T12:11:31;6.10;99.90
14378;DHT22;7272;53.668;9.578;2022-12-07T12:14:45;6.10;99.90
14378;DHT22;7272;53.668;9.578;2022-12-07T12:18:00;6.10;99.90
14378;DHT22;7272;53.668;9.578;2022-12-07T12:21:09;6.20;99.90
14378;DHT22;7272;53.668;9.578;2022-12-07T12:24:15;6.30;99.90
14378;DHT22;7272;53.668;9.578;2022-12-07T12:27:23;6.30;99.90
14378;DHT22;7272;53.668;9.578;2022-12-07T12:30:33;6.50;99.90
14378;DHT22;7272;53.668;9.578;2022-12-07T12:33:37;6.60;99.90
14378;DHT22;7272;53.668;9.578;2022-12-07T12:36:45;6.70;99.90
14378;DHT22;7272;53.668;9.578;2022-12-07T12:43:44;6.60;99.90
14378;DHT22;7272;53.668;9.578;2022-12-07T12:46:51;6.60;99.90
14378;DHT22;7272;53.668;9.578;2022-12-07T12:50:18;6.50;99.90
14378;DHT22;7272;53.668;9.578;2022-12-07T12:53:22;6.40;99.90
14378;DHT22;7272;53.668;9.578;2022-12-07T12:56:37;6.30;99.90
14378;DHT22;7272;53.668;9.578;2022-12-07T12:59:41;6.20;99.90
14378;DHT22;7272;53.668;9.578;2022-12-07T13:02:48;6.20;99.90
14378;DHT22;7272;53.668;9.578;2022-12-07T13:06:17;6.00;99.90
14378;DHT22;7272;53.668;9.578;2022-12-07T13:09:22;5.90;99.90
14378;DHT22;7272;53.668;9.578;2022-12-07T13:12:25;5.90;99.90
14378;DHT22;7272;53.668;9.578;2022-12-07T13:15:36;5.90;99.90
14378;DHT22;7272;53.668;9.578;2022-12-07T13:18:38;5.90;99.90
14378;DHT22;7272;53.668;9.578;2022-12-07T13:21:43;5.90;99.90
14378;DHT22;7272;53.668;9.578;2022-12-07T13:24:46;5.90;99.90
14378;DHT22;7272;53.668;9.578;2022-12-07T13:27:54;5.90;99.90
14378;DHT22;7272;53.668;9.578;2022-12-07T13:31:04;5.90;99.90
14378;DHT22;7272;53.668;9.578;2022-12-07T13:34:30;5.90;99.90
14378;DHT22;7272;53.668;9.578;2022-12-07T13:37:34;5.90;99.90
14378;DHT22;7272;53.668;9.578;2022-12-07T13:40:36;5.90;99.90
14378;DHT22;7272;53.668;9.578;2022-12-07T13:43:47;5.90;99.90
14378;DHT22;7272;53.668;9.578;2022-12-07T13:46:55;5.90;99.90
14378;DHT22;7272;53.668;9.578;2022-12-07T13:49:59;5.80;99.90
14378;DHT22;7272;53.668;9.578;2022-12-07T13:53:12;5.80;99.90
14378;DHT22;7272;53.668;9.578;2022-12-07T13:56:14;5.80;99.90
14378;DHT22;7272;53.668;9.578;2022-12-07T13:59:18;5.80;99.90
14378;DHT22;7272;53.668;9.578;2022-12-07T14:02:22;5.80;99.90
14378;DHT22;7272;53.668;9.578;2022-12-07T14:05:27;5.80;99.90
14378;DHT22;7272;53.668;9.578;2022-12-07T14:08:30;5.70;99.90
14378;DHT22;7272;53.668;9.578;2022-12-07T14:11:34;5.60;99.90
14378;DHT22;7272;53.668;9.578;2022-12-07T14:14:36;5.60;99.90
14378;DHT22;7272;53.668;9.578;2022-12-07T14:17:49;5.50;99.90
14378;DHT22;7272;53.668;9.578;2022-12-07T14:21:02;5.50;99.90
14378;DHT22;7272;53.668;9.578;2022-12-07T14:24:15;5.40;99.90
14378;DHT22;7272;53.668;9.578;2022-12-07T14:27:19;5.40;99.90
14378;DHT22;7272;53.668;9.578;2022-12-07T14:30:22;5.30;99.90
14378;DHT22;7272;53.668;9.578;2022-12-07T14:33:25;5.20;99.90
14378;DHT22;7272;53.668;9.578;2022-12-07T14:36:27;5.20;99.90
14378;DHT22;7272;53.668;9.578;2022-12-07T14:39:30;5.20;99.90
14378;DHT22;7272;53.668;9.578;2022-12-07T14:42:33;5.10;99.90
14378;DHT22;7272;53.668;9.578;2022-12-07T14:45:36;5.10;99.90
14378;DHT22;7272;53.668;9.578;2022-12-07T14:48:37;5.10;99.90
14378;DHT22;7272;53.668;9.578;2022-12-07T14:51:41;5.10;99.90
14378;DHT22;7272;53.668;9.578;2022-12-07T14:54:44;5.00;99.90
14378;DHT22;7272;53.668;9.578;2022-12-07T14:57:46;5.00;99.90
14378;DHT22;7272;53.668;9.578;2022-12-07T15:00:48;5.00;99.90
14378;DHT22;7272;53.668;9.578;2022-12-07T15:03:51;4.80;99.90
14378;DHT22;7272;53.668;9.578;2022-12-07T15:06:58;4.70;99.90
14378;DHT22;7272;53.668;9.578;2022-12-07T15:10:01;4.60;99.90
14378;DHT22;7272;53.668;9.578;2022-12-07T15:13:03;4.60;99.90
14378;DHT22;7272;53.668;9.578;2022-12-07T15:16:19;4.50;99.90
14378;DHT22;7272;53.668;9.578;2022-12-07T15:19:24;4.40;99.90
14378;DHT22;7272;53.668;9.578;2022-12-07T15:22:27;4.40;99.90
14378;DHT22;7272;53.668;9.578;2022-12-07T15:25:32;4.30;99.90
14378;DHT22;7272;53.668;9.578;2022-12-07T15:28:34;4.30;99.90
14378;DHT22;7272;53.668;9.578;2022-12-07T15:31:36;4.30;99.90
14378;DHT22;7272;53.668;9.578;2022-12-07T15:34:38;4.40;99.90
14378;DHT22;7272;53.668;9.578;2022-12-07T15:37:40;4.40;99.90
14378;DHT22;7272;53.668;9.578;2022-12-07T15:40:46;4.40;99.90
14378;DHT22;7272;53.668;9.578;2022-12-07T15:43:48;4.40;99.90
14378;DHT22;7272;53.668;9.578;2022-12-07T15:47:07;4.40;99.90
14378;DHT22;7272;53.668;9.578;2022-12-07T15:50:11;4.40;99.90
14378;DHT22;7272;53.668;9.578;2022-12-07T15:53:13;4.30;99.90
14378;DHT22;7272;53.668;9.578;2022-12-07T15:56:17;4.30;99.90
14378;DHT22;7272;53.668;9.578;2022-12-07T15:59:19;4.20;99.90
14378;DHT22;7272;53.668;9.578;2022-12-07T16:02:21;4.20;99.90
14378;DHT22;7272;53.668;9.578;2022-12-07T16:05:24;4.30;99.90
14378;DHT22;7272;53.668;9.578;2022-12-07T16:08:25;4.20;99.90
14378;DHT22;7272;53.668;9.578;2022-12-07T16:11:29;4.10;99.90
14378;DHT22;7272;53.668;9.578;2022-12-07T16:14:31;4.20;99.90
14378;DHT22;7272;53.668;9.578;2022-12-07T16:17:33;4.10;99.90
14378;DHT22;7272;53.668;9.578;2022-12-07T16:20:35;4.10;99.90
14378;DHT22;7272;53.668;9.578;2022-12-07T16:23:37;4.10;99.90
14378;DHT22;7272;53.668;9.578;2022-12-07T16:26:41;4.10;99.90
14378;DHT22;7272;53.668;9.578;2022-12-07T16:29:42;4.10;99.90
14378;DHT22;7272;53.668;9.578;2022-12-07T16:32:44;4.00;99.90
14378;DHT22;7272;53.668;9.578;2022-12-07T16:35:47;3.90;99.90
14378;DHT22;7272;53.668;9.578;2022-12-07T16:38:49;3.90;99.90
14378;DHT22;7272;53.668;9.578;2022-12-07T16:41:52;4.00;99.90
14378;DHT22;7272;53.668;9.578;2022-12-07T16:44:54;3.90;99.90
14378;DHT22;7272;53.668;9.578;2022-12-07T16:47:56;3.90;99.90
14378;DHT22;7272;53.668;9.578;2022-12-07T16:51:02;3.80;99.90
14378;DHT22;7272;53.668;9.578;2022-12-07T16:54:05;3.70;99.90
14378;DHT22;7272;53.668;9.578;2022-12-07T16:57:08;3.70;99.90
14378;DHT22;7272;53.668;9.578;2022-12-07T17:00:10;3.70;99.90
14378;DHT22;7272;53.668;9.578;2022-12-07T17:03:12;3.60;99.90
14378;DHT22;7272;53.668;9.578;2022-12-07T17:06:16;3.70;99.90
14378;DHT22;7272;53.668;9.578;2022-12-07T17:09:18;3.60;99.90
14378;DHT22;7272;53.668;9.578;2022-12-07T17:12:21;3.60;99.90
14378;DHT22;7272;53.668;9.578;2022-12-07T17:15:23;3.60;99.90
14378;DHT22;7272;53.668;9.578;2022-12-07T17:18:29;3.60;99.90
14378;DHT22;7272;53.668;9.578;2022-12-07T17:21:33;3.60;99.90
14378;DHT22;7272;53.668;9.578;2022-12-07T17:24:35;3.70;99.90
14378;DHT22;7272;53.668;9.578;2022-12-07T17:27:38;3.60;99.90
14378;DHT22;7272;53.668;9.578;2022-12-07T17:30:40;3.60;99.90
14378;DHT22;7272;53.668;9.578;2022-12-07T17:33:42;3.60;99.90
14378;DHT22;7272;53.668;9.578;2022-12-07T17:36:44;3.60;99.90
14378;DHT22;7272;53.668;9.578;2022-12-07T17:39:47;3.50;99.90
14378;DHT22;7272;53.668;9.578;2022-12-07T17:42:50;3.40;99.90
14378;DHT22;7272;53.668;9.578;2022-12-07T17:45:52;3.30;99.90
14378;DHT22;7272;53.668;9.578;2022-12-07T17:48:55;3.30;99.90
14378;DHT22;7272;53.668;9.578;2022-12-07T17:51:58;3.20;99.90
14378;DHT22;7272;53.668;9.578;2022-12-07T17:55:17;3.10;99.90
14378;DHT22;7272;53.668;9.578;2022-12-07T17:58:21;3.10;99.90
14378;DHT22;7272;53.668;9.578;2022-12-07T18:01:23;3.10;99.90
14378;DHT22;7272;53.668;9.578;2022-12-07T18:04:25;3.20;99.90
14378;DHT22;7272;53.668;9.578;2022-12-07T18:07:27;3.20;99.90
14378;DHT22;7272;53.668;9.578;2022-12-07T18:10:29;3.20;99.90
14378;DHT22;7272;53.668;9.578;2022-12-07T18:13:33;3.20;99.90
14378;DHT22;7272;53.668;9.578;2022-12-07T18:16:38;3.20;99.90
14378;DHT22;7272;53.668;9.578;2022-12-07T18:19:40;3.10;99.90
14378;DHT22;7272;53.668;9.578;2022-12-07T18:22:42;3.20;99.90
14378;DHT22;7272;53.668;9.578;2022-12-07T18:25:46;3.30;99.90
14378;DHT22;7272;53.668;9.578;2022-12-07T18:28:50;3.30;99.90
14378;DHT22;7272;53.668;9.578;2022-12-07T18:31:53;3.30;99.90
14378;DHT22;7272;53.668;9.578;2022-12-07T18:34:55;3.30;99.90
14378;DHT22;7272;53.668;9.578;2022-12-07T18:37:57;3.20;99.90
14378;DHT22;7272;53.668;9.578;2022-12-07T18:41:00;3.20;99.90
14378;DHT22;7272;53.668;9.578;2022-12-07T18:44:04;3.20;99.90
14378;DHT22;7272;53.668;9.578;2022-12-07T18:47:06;3.30;99.90
14378;DHT22;7272;53.668;9.578;2022-12-07T18:50:09;3.40;99.90
14378;DHT22;7272;53.668;9.578;2022-12-07T18:53:11;3.40;99.90
14378;DHT22;7272;53.668;9.578;2022-12-07T18:56:14;3.50;99.90
14378;DHT22;7272;53.668;9.578;2022-12-07T18:59:19;3.60;99.90
14378;DHT22;7272;53.668;9.578;2022-12-07T19:02:38;3.50;99.90
14378;DHT22;7272;53.668;9.578;2022-12-07T19:05:40;3.40;99.90
14378;DHT22;7272;53.668;9.578;2022-12-07T19:08:42;3.30;99.90
14378;DHT22;7272;53.668;9.578;2022-12-07T19:11:44;3.30;99.90
14378;DHT22;7272;53.668;9.578;2022-12-07T19:14:53;3.20;99.90
14378;DHT22;7272;53.668;9.578;2022-12-07T19:17:55;3.10;99.90
14378;DHT22;7272;53.668;9.578;2022-12-07T19:20:57;3.00;99.90
14378;DHT22;7272;53.668;9.578;2022-12-07T19:24:03;3.00;99.90
14378;DHT22;7272;53.668;9.578;2022-12-07T19:27:06;3.00;99.90
14378;DHT22;7272;53.668;9.578;2022-12-07T19:30:11;3.00;99.90
14378;DHT22;7272;53.668;9.578;2022-12-07T19:33:13;3.10;99.90
14378;DHT22;7272;53.668;9.578;2022-12-07T19:36:14;3.10;99.90
14378;DHT22;7272;53.668;9.578;2022-12-07T19:39:16;3.10;99.90
14378;DHT22;7272;53.668;9.578;2022-12-07T19:42:18;3.20;99.90
14378;DHT22;7272;53.668;9.578;2022-12-07T19:45:22;3.30;99.90
14378;DHT22;7272;53.668;9.578;2022-12-07T19:48:24;3.30;99.90
14378;DHT22;7272;53.668;9.578;2022-12-07T19:51:26;3.40;99.90
14378;DHT22;7272;53.668;9.578;2022-12-07T19:54:29;3.40;99.90
14378;DHT22;7272;53.668;9.578;2022-12-07T19:57:31;3.40;99.90
14378;DHT22;7272;53.668;9.578;2022-12-07T20:00:34;3.50;99.90
14378;DHT22;7272;53.668;9.578;2022-12-07T20:03:36;3.50;99.90
14378;DHT22;7272;53.668;9.578;2022-12-07T20:06:39;3.50;99.90
14378;DHT22;7272;53.668;9.578;2022-12-07T20:09:41;3.40;99.90
14378;DHT22;7272;53.668;9.578;2022-12-07T20:12:43;3.40;99.90
14378;DHT22;7272;53.668;9.578;2022-12-07T20:16:04;3.40;99.90
14378;DHT22;7272;53.668;9.578;2022-12-07T20:19:06;3.40;99.90